createdAt,value
2019-06-27T00:01:56.672Z,22.50
2019-06-27T00:04:25.998Z,22.38
2019-06-27T00:06:55.392Z,22.46
2019-06-27T00:09:24.911Z,22.39
2019-06-27T00:11:54.531Z,22.43
2019-06-27T00:14:23.985Z,22.49
2019-06-27T00:16:53.447Z,22.48
2019-06-27T00:19:22.803Z,22.50
2019-06-27T00:21:52.307Z,22.57
2019-06-27T00:24:21.892Z,22.59
2019-06-27T00:26:57.054Z,22.45
2019-06-27T00:29:22.397Z,22.54
2019-06-27T00:31:51.832Z,22.37
2019-06-27T00:34:21.151Z,22.35
2019-06-27T00:36:50.478Z,22.38
2019-06-27T00:39:19.918Z,22.33
2019-06-27T00:41:49.313Z,22.28
2019-06-27T00:44:18.665Z,22.19
2019-06-27T00:46:48.007Z,22.14
2019-06-27T00:49:17.386Z,21.97
2019-06-27T00:51:46.906Z,21.87
2019-06-27T00:54:16.266Z,21.79
2019-06-27T00:56:45.723Z,21.74
2019-06-27T00:59:15.181Z,21.66
2019-06-27T01:01:44.669Z,21.76
2019-06-27T01:04:14.025Z,21.68
2019-06-27T01:06:43.409Z,21.69
2019-06-27T01:09:12.888Z,21.53
2019-06-27T01:11:42.272Z,21.39
2019-06-27T01:14:11.752Z,21.36
2019-06-27T01:16:41.098Z,21.22
2019-06-27T01:19:10.555Z,21.16
2019-06-27T01:21:40.155Z,21.18
2019-06-27T01:24:09.559Z,21.14
2019-06-27T01:26:38.985Z,21.24
2019-06-27T01:29:08.391Z,21.14
2019-06-27T01:31:37.930Z,21.22
2019-06-27T01:34:07.350Z,21.23
2019-06-27T01:36:36.711Z,21.06
2019-06-27T01:39:06.799Z,20.91
2019-06-27T01:41:36.214Z,20.98
2019-06-27T01:44:08.918Z,21.03
2019-06-27T01:46:38.339Z,20.97
2019-06-27T01:49:07.832Z,20.86
2019-06-27T01:51:37.322Z,20.77
2019-06-27T01:54:06.656Z,20.71
2019-06-27T01:56:35.963Z,20.76
2019-06-27T01:59:05.411Z,20.73
2019-06-27T02:01:34.706Z,20.79
2019-06-27T02:04:04.098Z,20.68
2019-06-27T02:06:33.328Z,20.68
2019-06-27T02:09:02.782Z,20.64
2019-06-27T02:11:32.273Z,20.71
2019-06-27T02:14:01.749Z,20.65
2019-06-27T02:16:31.078Z,20.44
2019-06-27T02:19:00.563Z,20.33
2019-06-27T02:21:29.912Z,20.38
2019-06-27T02:23:59.259Z,20.27
2019-06-27T02:26:28.796Z,20.21
2019-06-27T02:28:58.220Z,20.23
2019-06-27T02:31:27.642Z,20.24
2019-06-27T02:33:57.107Z,20.22
2019-06-27T02:36:26.485Z,20.03
2019-06-27T02:38:56.050Z,20.12
2019-06-27T02:41:25.425Z,20.08
2019-06-27T02:43:54.826Z,20.04
2019-06-27T02:46:24.248Z,19.95
2019-06-27T02:48:53.650Z,19.96
2019-06-27T02:51:23.084Z,19.93
2019-06-27T02:53:52.515Z,20.12
2019-06-27T02:56:21.940Z,20.12
2019-06-27T02:58:51.449Z,20.14
2019-06-27T03:01:20.876Z,20.24
2019-06-27T03:03:50.255Z,20.02
2019-06-27T03:06:19.666Z,19.93
2019-06-27T03:08:49.002Z,19.85
2019-06-27T03:11:18.409Z,19.81
2019-06-27T03:13:47.765Z,19.73
2019-06-27T03:16:17.102Z,19.83
2019-06-27T03:18:46.513Z,19.71
2019-06-27T03:21:15.875Z,19.75
2019-06-27T03:23:45.310Z,19.79
2019-06-27T03:26:14.970Z,19.97
2019-06-27T03:28:53.007Z,19.76
2019-06-27T03:31:15.432Z,19.70
2019-06-27T03:33:44.767Z,19.52
2019-06-27T03:36:14.338Z,19.52
2019-06-27T03:38:43.763Z,19.40
2019-06-27T03:41:13.058Z,19.49
2019-06-27T03:43:42.494Z,19.53
2019-06-27T03:46:11.916Z,19.56
2019-06-27T03:48:41.328Z,19.56
2019-06-27T03:51:10.627Z,19.68
2019-06-27T03:53:40.069Z,19.66
2019-06-27T03:56:09.490Z,19.75
2019-06-27T03:58:38.989Z,19.83
2019-06-27T04:01:08.342Z,19.89
2019-06-27T04:03:42.692Z,19.90
2019-06-27T04:06:08.833Z,19.90
2019-06-27T04:08:38.207Z,20.11
2019-06-27T04:11:07.632Z,20.03
2019-06-27T04:13:37.119Z,20.11
2019-06-27T04:16:06.804Z,20.20
2019-06-27T04:18:36.370Z,20.14
2019-06-27T04:21:05.705Z,20.24
2019-06-27T04:23:35.083Z,20.19
2019-06-27T04:26:05.297Z,20.13
2019-06-27T04:28:34.659Z,20.38
2019-06-27T04:31:03.955Z,20.30
2019-06-27T04:33:33.348Z,20.31
2019-06-27T04:36:02.632Z,20.41
2019-06-27T04:38:32.286Z,20.43
2019-06-27T04:41:01.687Z,20.46
2019-06-27T04:43:31.139Z,20.56
2019-06-27T04:46:00.406Z,20.52
2019-06-27T04:48:29.824Z,20.64
2019-06-27T04:50:59.136Z,20.79
2019-06-27T04:53:28.595Z,20.71
2019-06-27T04:55:57.898Z,20.87
2019-06-27T04:58:27.340Z,20.77
2019-06-27T05:00:56.636Z,21.01
2019-06-27T05:03:25.955Z,20.97
2019-06-27T05:05:55.309Z,21.12
2019-06-27T05:08:24.582Z,20.98
2019-06-27T05:10:54.099Z,20.96
2019-06-27T05:13:23.585Z,21.02
2019-06-27T05:15:52.877Z,20.91
2019-06-27T05:18:22.507Z,21.01
2019-06-27T05:20:51.970Z,21.27
2019-06-27T05:23:21.401Z,21.44
2019-06-27T05:25:50.767Z,21.49
2019-06-27T05:28:20.177Z,21.87
2019-06-27T05:30:51.534Z,21.89
2019-06-27T05:33:20.527Z,21.86
2019-06-27T05:35:49.832Z,21.70
2019-06-27T05:38:19.127Z,21.85
2019-06-27T05:40:48.456Z,21.96
2019-06-27T05:43:17.843Z,22.22
2019-06-27T05:45:47.259Z,22.15
2019-06-27T05:48:16.606Z,22.02
2019-06-27T05:50:45.981Z,22.09
2019-06-27T05:53:15.351Z,22.26
2019-06-27T05:55:44.719Z,22.57
2019-06-27T05:58:14.096Z,22.60
2019-06-27T06:00:43.391Z,22.80
2019-06-27T06:03:12.685Z,23.27
2019-06-27T06:05:42.013Z,23.95
2019-06-27T06:08:11.287Z,24.08
2019-06-27T06:10:40.612Z,23.93
2019-06-27T06:13:09.981Z,23.76
2019-06-27T06:15:39.307Z,23.72
2019-06-27T06:18:08.700Z,23.37
2019-06-27T06:20:38.046Z,23.38
2019-06-27T06:23:07.378Z,23.41
2019-06-27T06:25:36.730Z,23.54
2019-06-27T06:28:05.995Z,25.11
2019-06-27T06:30:44.229Z,25.83
2019-06-27T06:33:06.435Z,25.63
2019-06-27T06:35:35.716Z,25.20
2019-06-27T06:38:05.118Z,25.33
2019-06-27T06:40:34.792Z,26.68
2019-06-27T06:43:04.122Z,27.58
2019-06-27T06:45:33.462Z,27.93
2019-06-27T06:48:02.705Z,27.95
2019-06-27T06:50:32.198Z,29.23
2019-06-27T06:53:01.421Z,30.03
2019-06-27T06:55:30.869Z,29.59
2019-06-27T06:58:00.275Z,29.75
2019-06-27T07:00:29.654Z,30.60
2019-06-27T07:02:59.176Z,29.11
2019-06-27T07:05:28.778Z,29.87
2019-06-27T07:07:58.286Z,29.63
2019-06-27T07:10:27.691Z,29.86
2019-06-27T07:12:57.064Z,29.71
2019-06-27T07:15:26.450Z,30.83
2019-06-27T07:17:55.792Z,31.15
2019-06-27T07:20:25.100Z,30.41
2019-06-27T07:22:54.518Z,30.28
2019-06-27T07:25:23.743Z,30.40
2019-06-27T07:27:53.170Z,30.20
2019-06-27T07:30:22.660Z,29.94
2019-06-27T07:32:52.395Z,30.60
2019-06-27T07:35:21.749Z,31.36
2019-06-27T07:37:51.119Z,30.84
2019-06-27T07:40:20.582Z,31.64
2019-06-27T07:42:50.097Z,31.26
2019-06-27T07:45:19.477Z,32.13
2019-06-27T07:47:48.840Z,31.32
2019-06-27T07:50:18.722Z,31.19
2019-06-27T07:52:48.189Z,31.53
2019-06-27T07:55:18.077Z,31.65
2019-06-27T07:57:47.459Z,33.11
2019-06-27T08:00:17.313Z,33.66
2019-06-27T08:02:46.701Z,34.53
2019-06-27T08:05:16.726Z,34.85
2019-06-27T08:07:46.385Z,34.34
2019-06-27T08:10:16.276Z,35.71
2019-06-27T08:12:45.587Z,34.41
2019-06-27T08:15:15.967Z,33.44
2019-06-27T08:17:45.434Z,34.41
2019-06-27T08:20:15.565Z,34.84
2019-06-27T08:22:44.950Z,34.21
2019-06-27T08:25:14.653Z,33.79
2019-06-27T08:27:44.075Z,34.95
2019-06-27T08:30:13.851Z,36.16
2019-06-27T08:32:43.206Z,35.43
2019-06-27T08:35:12.785Z,35.85
2019-06-27T08:37:42.222Z,35.76
2019-06-27T08:40:12.822Z,35.63
2019-06-27T08:42:42.236Z,34.91
2019-06-27T08:45:12.054Z,35.63
2019-06-27T08:47:41.364Z,35.42
2019-06-27T08:50:12.330Z,35.57
2019-06-27T08:52:41.675Z,36.31
2019-06-27T08:55:10.928Z,35.36
2019-06-27T08:57:40.258Z,35.75
2019-06-27T09:00:10.500Z,36.44
2019-06-27T09:02:40.174Z,35.73
2019-06-27T09:05:10.707Z,36.59
2019-06-27T09:07:40.072Z,37.23
2019-06-27T09:10:10.008Z,37.87
2019-06-27T09:12:39.522Z,36.78
2019-06-27T09:15:10.935Z,37.25
2019-06-27T09:17:40.304Z,36.37
2019-06-27T09:20:10.794Z,36.64
2019-06-27T09:22:40.349Z,37.95
2019-06-27T09:25:09.860Z,38.08
2019-06-27T09:27:39.412Z,36.30
2019-06-27T09:30:09.561Z,36.29
2019-06-27T09:32:38.982Z,38.22
2019-06-27T09:35:09.380Z,37.55
2019-06-27T09:37:38.667Z,37.76
2019-06-27T09:40:10.645Z,38.58
2019-06-27T09:42:39.938Z,38.20
2019-06-27T09:45:10.792Z,38.11
2019-06-27T09:47:40.251Z,38.32
2019-06-27T09:50:10.452Z,36.60
2019-06-27T09:52:39.923Z,37.00
2019-06-27T09:55:09.916Z,35.98
2019-06-27T09:57:39.270Z,36.05
2019-06-27T10:00:09.061Z,36.44
2019-06-27T10:02:42.109Z,37.07
2019-06-27T10:05:10.212Z,38.09
2019-06-27T10:07:39.496Z,38.22
2019-06-27T10:10:09.390Z,38.64
2019-06-27T10:12:42.696Z,39.35
2019-06-27T10:15:09.956Z,39.11
2019-06-27T10:17:39.427Z,38.15
2019-06-27T10:20:09.634Z,37.31
2019-06-27T10:22:38.975Z,37.23
2019-06-27T10:25:08.661Z,38.99
2019-06-27T10:27:38.171Z,38.57
2019-06-27T10:30:09.847Z,37.98
2019-06-27T10:32:39.210Z,38.88
2019-06-27T10:35:09.131Z,39.32
2019-06-27T10:37:38.502Z,40.18
2019-06-27T10:40:08.895Z,39.11
2019-06-27T10:42:38.298Z,39.05
2019-06-27T10:45:08.044Z,39.14
2019-06-27T10:47:37.401Z,37.97
2019-06-27T10:50:07.293Z,38.50
2019-06-27T10:52:36.609Z,38.72
2019-06-27T10:55:06.222Z,38.28
2019-06-27T10:57:35.492Z,38.60
2019-06-27T11:00:05.187Z,37.83
2019-06-27T11:02:34.619Z,38.37
2019-06-27T11:05:04.028Z,39.13
2019-06-27T11:07:33.403Z,39.54
2019-06-27T11:10:02.671Z,39.43
2019-06-27T11:12:32.042Z,39.41
2019-06-27T11:15:01.363Z,38.95
2019-06-27T11:17:30.778Z,38.28
2019-06-27T11:20:00.109Z,37.68
2019-06-27T11:22:29.555Z,37.82
2019-06-27T11:24:58.882Z,37.38
2019-06-27T11:27:28.214Z,38.24
2019-06-27T11:29:57.719Z,38.78
2019-06-27T11:32:27.082Z,38.66
2019-06-27T11:34:56.374Z,38.71
2019-06-27T11:37:25.718Z,38.96
2019-06-27T11:39:54.985Z,38.87
2019-06-27T11:42:24.375Z,39.40
2019-06-27T11:44:53.670Z,40.45
2019-06-27T11:47:45.485Z,40.70
2019-06-27T11:50:14.828Z,39.83
2019-06-27T11:52:47.070Z,38.67
2019-06-27T11:55:15.546Z,40.39
2019-06-27T11:57:45.027Z,39.58
2019-06-27T12:00:14.807Z,39.67
2019-06-27T12:02:44.141Z,39.39
2019-06-27T12:05:14.255Z,40.06
2019-06-27T12:07:43.558Z,38.93
2019-06-27T12:10:14.237Z,39.24
2019-06-27T12:12:43.568Z,38.85
2019-06-27T12:15:13.135Z,40.32
2019-06-27T12:17:42.425Z,39.92
2019-06-27T12:20:13.067Z,39.11
2019-06-27T12:22:42.499Z,39.12
2019-06-27T12:25:12.686Z,39.71
2019-06-27T12:27:42.040Z,39.55
2019-06-27T12:30:11.979Z,39.85
2019-06-27T12:32:51.298Z,39.67
2019-06-27T12:35:12.416Z,40.09
2019-06-27T12:37:41.729Z,40.20
2019-06-27T12:40:12.036Z,39.83
2019-06-27T12:42:41.660Z,39.18
2019-06-27T12:45:12.689Z,39.28
2019-06-27T12:47:42.029Z,40.19
2019-06-27T12:50:11.668Z,38.99
2019-06-27T12:52:40.990Z,41.09
2019-06-27T12:55:10.555Z,39.61
2019-06-27T12:57:39.884Z,40.26
2019-06-27T13:00:09.684Z,39.62
2019-06-27T13:02:39.236Z,38.50
2019-06-27T13:05:08.631Z,39.12
2019-06-27T13:07:38.084Z,39.18
2019-06-27T13:10:08.353Z,39.54
2019-06-27T13:12:37.715Z,38.79
2019-06-27T13:15:07.844Z,37.92
2019-06-27T13:17:37.227Z,38.58
2019-06-27T13:20:07.506Z,38.52
2019-06-27T13:22:37.062Z,38.48
2019-06-27T13:25:06.941Z,37.67
2019-06-27T13:27:36.280Z,37.30
2019-06-27T13:30:05.871Z,37.94
2019-06-27T13:32:35.128Z,37.89
2019-06-27T13:35:04.716Z,37.08
2019-06-27T13:37:34.059Z,37.92
2019-06-27T13:40:04.787Z,38.55
2019-06-27T13:42:38.012Z,37.57
2019-06-27T13:45:05.590Z,38.32
2019-06-27T13:47:35.065Z,38.99
2019-06-27T13:50:04.777Z,39.07
2019-06-27T13:52:34.308Z,38.85
2019-06-27T13:55:03.682Z,38.04
2019-06-27T13:57:33.029Z,37.94
2019-06-27T14:00:02.380Z,37.67
2019-06-27T14:02:31.646Z,38.59
2019-06-27T14:05:00.934Z,38.58
2019-06-27T14:07:30.251Z,37.00
2019-06-27T14:09:59.962Z,37.51
2019-06-27T14:12:30.496Z,37.57
2019-06-27T14:15:00.597Z,37.77
2019-06-27T14:17:30.174Z,37.55
2019-06-27T14:19:59.539Z,36.60
2019-06-27T14:22:33.283Z,35.99
2019-06-27T14:25:00.012Z,36.65
2019-06-27T14:27:29.318Z,36.90
2019-06-27T14:29:58.712Z,37.88
2019-06-27T14:32:28.120Z,37.12
2019-06-27T14:35:13.653Z,36.81
2019-06-27T14:37:28.686Z,35.73
2019-06-27T14:39:58.082Z,35.14
2019-06-27T14:42:27.682Z,34.73
2019-06-27T14:44:57.109Z,34.28
2019-06-27T14:47:26.452Z,34.19
2019-06-27T14:49:55.905Z,34.16
2019-06-27T14:52:25.222Z,33.75
2019-06-27T14:54:54.528Z,33.88
2019-06-27T14:57:23.861Z,33.39
2019-06-27T14:59:53.268Z,33.70
2019-06-27T15:02:22.688Z,33.43
2019-06-27T15:04:51.980Z,33.01
2019-06-27T15:07:21.337Z,33.22
2019-06-27T15:09:50.729Z,32.40
2019-06-27T15:12:20.118Z,32.77
2019-06-27T15:14:50.655Z,33.11
2019-06-27T15:17:20.328Z,32.47
2019-06-27T15:19:49.873Z,32.23
2019-06-27T15:22:19.269Z,32.62
2019-06-27T15:24:48.709Z,32.53
2019-06-27T15:27:18.111Z,32.53
2019-06-27T15:29:47.377Z,32.44
2019-06-27T15:32:16.803Z,32.56
2019-06-27T15:34:47.687Z,32.56
2019-06-27T15:37:17.987Z,32.19
2019-06-27T15:39:47.533Z,31.73
2019-06-27T15:42:17.600Z,32.01
2019-06-27T15:44:47.052Z,31.88
2019-06-27T15:47:16.495Z,32.12
2019-06-27T15:49:45.940Z,32.00
2019-06-27T15:52:15.282Z,32.07
2019-06-27T15:54:44.656Z,31.43
2019-06-27T15:57:14.175Z,31.48
2019-06-27T15:59:43.596Z,30.94
2019-06-27T16:02:12.893Z,30.69
2019-06-27T16:04:42.310Z,30.85
2019-06-27T16:07:11.606Z,31.35
2019-06-27T16:09:41.258Z,30.84
2019-06-27T16:12:10.604Z,31.15
2019-06-27T16:14:40.238Z,30.97
2019-06-27T16:17:09.597Z,30.68
2019-06-27T16:19:38.933Z,30.56
2019-06-27T16:22:08.260Z,30.85
2019-06-27T16:24:37.631Z,30.77
2019-06-27T16:27:06.983Z,30.76
2019-06-27T16:29:36.401Z,30.75
2019-06-27T16:32:05.846Z,30.40
2019-06-27T16:34:35.093Z,30.36
2019-06-27T16:37:04.350Z,30.21
2019-06-27T16:39:33.706Z,30.13
2019-06-27T16:42:03.078Z,29.79
2019-06-27T16:44:32.351Z,29.39
2019-06-27T16:47:01.767Z,29.37
2019-06-27T16:49:31.046Z,29.26
2019-06-27T16:52:00.434Z,29.50
2019-06-27T16:54:29.816Z,29.32
2019-06-27T16:56:59.093Z,29.05
2019-06-27T16:59:28.487Z,29.03
2019-06-27T17:01:59.035Z,29.15
2019-06-27T17:04:29.209Z,28.82
2019-06-27T17:06:59.654Z,28.76
2019-06-27T17:09:29.095Z,28.63
2019-06-27T17:11:58.610Z,28.84
2019-06-27T17:14:28.017Z,28.53
2019-06-27T17:16:57.515Z,28.43
2019-06-27T17:19:27.034Z,28.39
2019-06-27T17:21:56.387Z,28.32
2019-06-27T17:24:25.689Z,28.29
2019-06-27T17:26:55.053Z,28.36
2019-06-27T17:29:24.398Z,28.32
2019-06-27T17:31:53.862Z,28.39
2019-06-27T17:34:23.162Z,27.92
2019-06-27T17:36:57.750Z,27.98
2019-06-27T17:39:24.767Z,28.09
2019-06-27T17:41:54.439Z,28.03
2019-06-27T17:44:23.763Z,27.77
2019-06-27T17:46:53.335Z,27.56
2019-06-27T17:49:22.696Z,27.28
2019-06-27T17:51:52.331Z,27.40
2019-06-27T17:54:21.708Z,27.51
2019-06-27T17:56:51.142Z,27.34
2019-06-27T17:59:20.665Z,27.28
2019-06-27T18:01:50.135Z,27.18
2019-06-27T18:04:19.489Z,27.00
2019-06-27T18:06:48.975Z,27.20
2019-06-27T18:09:18.583Z,27.00
2019-06-27T18:11:48.007Z,26.95
2019-06-27T18:14:17.277Z,26.91
2019-06-27T18:16:46.605Z,26.89
2019-06-27T18:19:16.001Z,26.84
2019-06-27T18:21:45.579Z,26.77
2019-06-27T18:24:14.865Z,26.54
2019-06-27T18:26:44.314Z,26.40
2019-06-27T18:29:13.839Z,26.29
2019-06-27T18:31:43.263Z,26.24
2019-06-27T18:34:12.557Z,26.07
2019-06-27T18:36:42.034Z,25.94
2019-06-27T18:39:11.312Z,25.60
2019-06-27T18:41:40.782Z,25.62
2019-06-27T18:44:10.256Z,25.58
2019-06-27T18:46:39.815Z,25.52
2019-06-27T18:49:09.245Z,25.32
2019-06-27T18:51:38.685Z,25.37
2019-06-27T18:54:07.900Z,25.30
2019-06-27T18:56:37.260Z,25.21
2019-06-27T18:59:07.196Z,25.15
2019-06-27T19:01:36.533Z,25.07
2019-06-27T19:04:05.912Z,24.86
2019-06-27T19:06:35.574Z,24.68
2019-06-27T19:09:05.509Z,24.59
2019-06-27T19:11:35.181Z,24.47
2019-06-27T19:14:04.508Z,24.27
2019-06-27T19:16:33.923Z,24.20
2019-06-27T19:19:06.172Z,24.05
2019-06-27T19:24:40.869Z,24.00
2019-06-27T19:27:10.133Z,23.79
2019-06-27T19:29:39.502Z,23.73
2019-06-27T19:32:08.787Z,23.61
2019-06-27T19:34:38.206Z,23.62
2019-06-27T19:37:07.600Z,23.53
2019-06-27T19:39:37.013Z,23.49
2019-06-27T19:42:06.388Z,23.38
2019-06-27T19:44:35.756Z,23.34
2019-06-27T19:47:05.094Z,23.16
2019-06-27T19:49:34.423Z,23.07
2019-06-27T19:52:03.792Z,23.03
2019-06-27T19:54:33.213Z,23.00
2019-06-27T19:57:02.585Z,22.90
2019-06-27T19:59:31.970Z,22.76
2019-06-27T20:02:01.293Z,22.60
2019-06-27T20:04:33.836Z,22.44
2019-06-27T20:07:01.872Z,22.20
2019-06-27T20:09:31.542Z,22.04
2019-06-27T20:12:00.984Z,22.01
2019-06-27T20:14:30.660Z,22.02
2019-06-27T20:17:00.037Z,21.76
2019-06-27T20:19:29.562Z,21.52
2019-06-27T20:22:00.673Z,21.38
2019-06-27T20:24:30.068Z,21.14
2019-06-27T20:26:59.389Z,20.83
2019-06-27T20:29:30.862Z,20.65
2019-06-27T20:32:00.007Z,20.77
2019-06-27T20:34:29.411Z,20.46
2019-06-27T20:36:58.792Z,20.29
2019-06-27T20:39:28.268Z,20.32
2019-06-27T20:41:57.619Z,20.21
2019-06-27T20:44:27.328Z,19.96
2019-06-27T20:46:56.641Z,19.68
2019-06-27T20:49:26.036Z,19.31
2019-06-27T20:51:55.358Z,19.50
2019-06-27T20:54:24.872Z,19.56
2019-06-27T20:56:54.095Z,19.50
2019-06-27T20:59:23.507Z,19.61
2019-06-27T21:01:56.163Z,19.40
2019-06-27T21:04:25.571Z,19.28
2019-06-27T21:06:54.887Z,19.24
2019-06-27T21:09:24.305Z,19.21
2019-06-27T21:11:53.786Z,19.26
2019-06-27T21:14:23.033Z,19.32
2019-06-27T21:16:53.286Z,19.15
2019-06-27T21:19:22.730Z,19.16
2019-06-27T21:21:53.048Z,19.27
2019-06-27T21:24:22.550Z,19.27
2019-06-27T21:26:51.892Z,19.14
2019-06-27T21:29:21.236Z,19.17
2019-06-27T21:31:50.574Z,19.01
2019-06-27T21:34:19.900Z,18.87
2019-06-27T21:36:49.478Z,18.88
2019-06-27T21:39:18.985Z,18.77
2019-06-27T21:41:48.432Z,18.64
2019-06-27T21:44:17.836Z,18.51
2019-06-27T21:46:47.231Z,18.40
2019-06-27T21:49:16.604Z,18.39
2019-06-27T21:51:45.943Z,18.29
2019-06-27T21:54:15.487Z,18.22
2019-06-27T21:56:44.877Z,18.01
2019-06-27T21:59:14.296Z,17.82
2019-06-27T22:01:43.676Z,17.73
2019-06-27T22:04:13.239Z,17.79
2019-06-27T22:06:42.649Z,17.67
2019-06-27T22:09:24.080Z,17.45
2019-06-27T22:11:43.222Z,17.31
2019-06-27T22:14:12.555Z,17.32
2019-06-27T22:16:41.839Z,17.39
2019-06-27T22:19:11.287Z,17.29
2019-06-27T22:21:40.671Z,17.01
2019-06-27T22:24:10.081Z,16.93
2019-06-27T22:26:39.335Z,16.91
2019-06-27T22:29:08.617Z,16.83
2019-06-27T22:31:38.050Z,16.82
2019-06-27T22:34:07.387Z,16.68
2019-06-27T22:36:36.912Z,16.61
2019-06-27T22:39:36.445Z,16.52
2019-06-27T22:42:12.645Z,16.44
2019-06-27T22:44:59.551Z,16.45
2019-06-27T22:47:46.782Z,16.37
2019-06-27T22:50:48.856Z,16.35
2019-06-27T22:53:21.106Z,16.05
2019-06-27T22:55:50.721Z,16.12
2019-06-27T22:58:20.102Z,15.98
2019-06-27T23:00:49.676Z,15.77
2019-06-27T23:03:19.117Z,15.74
2019-06-27T23:05:48.531Z,15.55
2019-06-27T23:08:17.904Z,15.60
2019-06-27T23:10:47.271Z,15.48
2019-06-27T23:13:16.861Z,15.33
2019-06-27T23:15:46.146Z,15.37
2019-06-27T23:18:15.491Z,15.47
2019-06-27T23:20:44.796Z,15.41
2019-06-27T23:23:14.116Z,15.41
2019-06-27T23:25:43.465Z,15.37
2019-06-27T23:28:12.735Z,15.31
2019-06-27T23:30:42.017Z,15.31
2019-06-27T23:33:11.355Z,15.34
2019-06-27T23:35:40.709Z,15.22
2019-06-27T23:38:10.153Z,15.15
2019-06-27T23:40:39.440Z,15.07
2019-06-27T23:43:08.854Z,14.87
2019-06-27T23:45:39.183Z,14.91
2019-06-27T23:48:08.544Z,14.79
2019-06-27T23:50:38.062Z,14.65
2019-06-27T23:53:07.419Z,14.90
2019-06-27T23:55:36.740Z,14.87
2019-06-27T23:58:06.124Z,14.90
